createdAt,value
2022-08-26T00:03:18.771Z,23.30
2022-08-26T00:07:27.861Z,23.20
2022-08-26T00:11:37.955Z,23.30
2022-08-26T00:16:06.527Z,23.30
2022-08-26T00:20:19.544Z,23.30
2022-08-26T00:24:28.335Z,23.20
2022-08-26T00:28:37.110Z,23.10
2022-08-26T00:32:46.455Z,23.20
2022-08-26T00:36:55.363Z,23.20
2022-08-26T00:41:04.869Z,23.30
2022-08-26T00:45:15.172Z,23.30
2022-08-26T00:49:26.914Z,23.10
2022-08-26T00:53:40.022Z,23.10
2022-08-26T00:57:51.554Z,22.90
2022-08-26T01:02:01.170Z,22.90
2022-08-26T01:06:13.203Z,22.80
2022-08-26T01:10:25.112Z,22.80
2022-08-26T01:14:36.841Z,22.70
2022-08-26T01:18:47.556Z,22.60
2022-08-26T01:23:03.244Z,22.60
2022-08-26T01:27:15.133Z,22.50
2022-08-26T01:31:26.801Z,22.50
2022-08-26T01:35:35.513Z,22.50
2022-08-26T01:40:05.189Z,22.50
2022-08-26T01:44:17.367Z,22.30
2022-08-26T01:48:29.052Z,22.20
2022-08-26T01:52:40.758Z,22.20
2022-08-26T01:56:53.265Z,22.10
2022-08-26T02:01:22.154Z,22.00
2022-08-26T02:05:30.930Z,22.10
2022-08-26T02:09:42.588Z,22.10
2022-08-26T02:13:54.251Z,22.00
2022-08-26T02:18:05.522Z,22.00
2022-08-26T02:22:17.192Z,22.00
2022-08-26T02:26:26.918Z,22.10
2022-08-26T02:30:35.983Z,22.10
2022-08-26T02:34:44.644Z,22.00
2022-08-26T02:38:53.347Z,22.00
2022-08-26T02:43:03.885Z,22.10
2022-08-26T02:47:16.157Z,22.10
2022-08-26T02:51:25.058Z,22.20
2022-08-26T02:55:33.753Z,22.10
2022-08-26T02:59:42.539Z,22.00
2022-08-26T03:03:51.413Z,22.00
2022-08-26T03:08:00.700Z,21.90
2022-08-26T03:12:09.440Z,21.90
2022-08-26T03:16:18.551Z,21.80
2022-08-26T03:20:27.639Z,21.80
2022-08-26T03:24:36.322Z,22.00
2022-08-26T03:29:03.338Z,22.00
2022-08-26T03:33:13.597Z,22.10
2022-08-26T03:37:22.609Z,22.10
2022-08-26T03:41:32.793Z,22.10
2022-08-26T03:45:41.438Z,22.00
2022-08-26T03:49:51.273Z,22.00
2022-08-26T03:54:02.486Z,22.00
2022-08-26T03:58:11.493Z,22.00
2022-08-26T04:02:20.753Z,22.00
2022-08-26T04:06:48.916Z,21.90
2022-08-26T04:10:59.097Z,21.80
2022-08-26T04:15:10.401Z,21.90
2022-08-26T04:19:20.266Z,21.90
2022-08-26T04:23:28.883Z,21.80
2022-08-26T04:27:37.603Z,21.80
2022-08-26T04:31:48.031Z,21.70
2022-08-26T04:36:05.384Z,21.70
2022-08-26T04:40:14.194Z,21.70
2022-08-26T04:44:25.083Z,21.70
2022-08-26T04:48:35.210Z,21.70
2022-08-26T04:52:43.820Z,21.80
2022-08-26T04:56:52.562Z,21.80
2022-08-26T05:01:01.716Z,21.70
2022-08-26T05:05:11.171Z,21.60
2022-08-26T05:09:20.393Z,21.50
2022-08-26T05:13:29.190Z,21.50
2022-08-26T05:17:38.727Z,21.40
2022-08-26T05:21:49.256Z,21.40
2022-08-26T05:25:59.278Z,21.40
2022-08-26T05:30:08.958Z,21.40
2022-08-26T05:34:17.728Z,21.40
2022-08-26T05:38:30.244Z,21.40
2022-08-26T05:42:39.081Z,21.30
2022-08-26T05:46:47.868Z,21.40
2022-08-26T05:50:58.250Z,21.40
2022-08-26T05:55:07.937Z,21.40
2022-08-26T05:59:16.676Z,21.40
2022-08-26T06:03:47.543Z,21.50
2022-08-26T06:08:14.083Z,21.50
2022-08-26T06:12:23.741Z,21.50
2022-08-26T06:16:34.793Z,21.70
2022-08-26T06:20:56.959Z,21.80
2022-08-26T06:25:13.343Z,21.70
2022-08-26T06:29:24.900Z,21.70
2022-08-26T06:33:53.074Z,21.70
2022-08-26T06:38:02.989Z,21.80
2022-08-26T06:42:12.144Z,21.70
2022-08-26T06:46:40.982Z,21.70
2022-08-26T06:50:54.270Z,21.70
2022-08-26T06:55:03.133Z,21.70
2022-08-26T06:59:12.759Z,21.80
2022-08-26T07:03:22.393Z,22.30
2022-08-26T07:07:30.969Z,22.50
2022-08-26T07:11:40.506Z,22.70
2022-08-26T07:15:49.072Z,22.50
2022-08-26T07:19:59.318Z,22.40
2022-08-26T07:24:08.452Z,22.40
2022-08-26T07:28:18.713Z,22.50
2022-08-26T07:32:27.463Z,22.60
2022-08-26T07:36:36.135Z,22.60
2022-08-26T07:40:44.736Z,22.60
2022-08-26T07:44:53.343Z,22.70
2022-08-26T07:49:02.151Z,22.70
2022-08-26T07:53:11.472Z,22.80
2022-08-26T07:57:20.726Z,22.70
2022-08-26T08:01:33.113Z,22.60
2022-08-26T08:05:42.335Z,22.60
2022-08-26T08:09:51.310Z,22.40
2022-08-26T08:14:01.088Z,22.30
2022-08-26T08:18:15.537Z,22.50
2022-08-26T08:22:21.836Z,22.60
2022-08-26T08:26:30.448Z,22.70
2022-08-26T08:30:40.970Z,22.70
2022-08-26T08:34:49.578Z,22.90
2022-08-26T08:38:58.193Z,23.00
2022-08-26T08:43:10.457Z,23.00
2022-08-26T08:47:22.322Z,23.10
2022-08-26T08:51:49.131Z,23.20
2022-08-26T08:56:01.689Z,23.20
2022-08-26T09:00:13.413Z,23.20
2022-08-26T09:04:41.820Z,23.10
2022-08-26T09:08:52.154Z,23.10
2022-08-26T09:13:02.412Z,23.20
2022-08-26T09:17:26.359Z,23.20
2022-08-26T09:21:35.301Z,23.30
2022-08-26T09:25:52.270Z,23.30
2022-08-26T09:30:01.246Z,23.20
2022-08-26T09:34:19.859Z,23.10
2022-08-26T09:38:31.916Z,23.00
2022-08-26T09:42:40.608Z,23.00
2022-08-26T09:46:59.603Z,23.20
2022-08-26T09:51:23.554Z,23.30
2022-08-26T09:55:32.434Z,23.50
2022-08-26T09:59:41.043Z,23.70
2022-08-26T10:03:50.158Z,23.80
2022-08-26T10:08:00.236Z,23.80
2022-08-26T10:12:21.467Z,23.90
2022-08-26T10:16:33.396Z,23.90
2022-08-26T10:20:46.797Z,23.90
2022-08-26T10:24:58.820Z,24.00
2022-08-26T10:29:15.999Z,24.10
2022-08-26T10:33:25.339Z,24.20
2022-08-26T10:37:39.902Z,24.20
2022-08-26T10:41:52.532Z,24.10
2022-08-26T10:46:07.248Z,24.10
2022-08-26T10:50:37.305Z,24.20
2022-08-26T10:55:01.237Z,24.30
2022-08-26T10:59:17.403Z,24.50
2022-08-26T11:03:38.754Z,24.60
2022-08-26T11:07:50.846Z,24.70
2022-08-26T11:12:05.136Z,24.80
2022-08-26T11:16:10.849Z,24.60
2022-08-26T11:20:37.534Z,24.60
2022-08-26T11:24:59.735Z,24.60
2022-08-26T11:29:12.865Z,24.50
2022-08-26T11:33:46.314Z,24.50
2022-08-26T11:37:57.606Z,24.50
2022-08-26T11:42:24.336Z,24.40
2022-08-26T11:46:36.605Z,24.40
2022-08-26T11:50:57.411Z,24.60
2022-08-26T11:55:12.110Z,24.60
2022-08-26T11:59:26.572Z,24.70
2022-08-26T12:03:50.666Z,24.70
2022-08-26T12:08:02.970Z,24.70
2022-08-26T12:12:17.935Z,24.80
2022-08-26T12:16:28.607Z,24.90
2022-08-26T12:20:48.153Z,24.80
2022-08-26T12:25:08.885Z,24.70
2022-08-26T12:29:28.562Z,24.70
2022-08-26T12:33:37.460Z,24.80
2022-08-26T12:37:52.316Z,24.90
2022-08-26T12:42:02.877Z,24.90
2022-08-26T12:46:20.643Z,24.80
2022-08-26T12:50:32.330Z,24.70
2022-08-26T12:54:59.030Z,24.60
2022-08-26T12:59:25.586Z,24.60
2022-08-26T13:03:44.654Z,24.60
2022-08-26T13:08:14.693Z,24.60
2022-08-26T13:12:32.939Z,24.50
2022-08-26T13:16:42.145Z,24.60
2022-08-26T13:21:11.609Z,24.60
2022-08-26T13:25:20.480Z,24.60
2022-08-26T13:29:29.072Z,24.60
2022-08-26T13:33:39.865Z,24.50
2022-08-26T13:37:50.092Z,24.40
2022-08-26T13:41:58.674Z,24.30
2022-08-26T13:46:07.205Z,24.20
2022-08-26T13:50:16.043Z,24.10
2022-08-26T13:54:24.619Z,23.80
2022-08-26T13:58:33.256Z,23.60
2022-08-26T14:02:41.879Z,23.30
2022-08-26T14:07:09.900Z,23.20
2022-08-26T14:11:20.020Z,23.20
2022-08-26T14:15:29.562Z,23.10
2022-08-26T14:19:38.623Z,23.10
2022-08-26T14:23:47.489Z,23.10
2022-08-26T14:27:56.926Z,23.00
2022-08-26T14:32:10.293Z,23.00
2022-08-26T14:36:28.529Z,23.00
2022-08-26T14:40:38.890Z,23.00
2022-08-26T14:44:50.109Z,22.90
2022-08-26T14:49:01.806Z,22.80
2022-08-26T14:53:28.650Z,22.90
2022-08-26T14:57:37.289Z,23.00
2022-08-26T15:02:05.995Z,23.00
2022-08-26T15:06:16.322Z,23.00
2022-08-26T15:10:25.133Z,23.10
2022-08-26T15:14:34.398Z,23.20
2022-08-26T15:18:43.081Z,23.30
2022-08-26T15:22:51.694Z,23.40
2022-08-26T15:27:02.174Z,23.30
2022-08-26T15:31:11.491Z,23.20
2022-08-26T15:35:20.157Z,23.30
2022-08-26T15:39:29.119Z,23.20
2022-08-26T15:43:38.581Z,23.20
2022-08-26T15:48:00.851Z,23.00
2022-08-26T15:51:57.613Z,23.00
2022-08-26T15:56:06.550Z,23.10
2022-08-26T16:00:17.397Z,23.10
2022-08-26T16:04:27.314Z,23.10
2022-08-26T16:08:36.526Z,23.10
2022-08-26T16:12:45.623Z,23.10
2022-08-26T16:16:54.231Z,23.20
2022-08-26T16:21:13.479Z,23.10
2022-08-26T16:25:14.293Z,22.90
2022-08-26T16:29:22.985Z,23.00
2022-08-26T16:33:31.614Z,23.00
2022-08-26T16:37:40.403Z,23.00
2022-08-26T16:41:48.964Z,22.90
2022-08-26T16:45:57.657Z,23.00
2022-08-26T16:50:09.947Z,23.00
2022-08-26T16:54:18.634Z,22.90
2022-08-26T16:58:27.370Z,22.80
2022-08-26T17:02:36.054Z,22.80
2022-08-26T17:06:44.608Z,22.60
2022-08-26T17:10:54.711Z,22.50
2022-08-26T17:15:05.851Z,22.40
2022-08-26T17:19:14.511Z,22.40
2022-08-26T17:23:23.978Z,22.40
2022-08-26T17:27:33.146Z,22.30
2022-08-26T17:31:43.507Z,22.30
2022-08-26T17:36:12.049Z,22.30
2022-08-26T17:40:23.451Z,22.20
2022-08-26T17:44:32.153Z,22.20
2022-08-26T17:48:41.717Z,22.20
2022-08-26T17:52:50.404Z,22.10
2022-08-26T17:56:59.093Z,22.20
2022-08-26T18:01:09.325Z,22.20
2022-08-26T18:05:18.030Z,22.10
2022-08-26T18:09:26.641Z,22.20
2022-08-26T18:13:35.256Z,22.20
2022-08-26T18:17:44.095Z,22.20
2022-08-26T18:21:53.052Z,22.20
2022-08-26T18:26:01.667Z,22.10
2022-08-26T18:30:16.640Z,22.10
2022-08-26T18:34:29.443Z,22.10
2022-08-26T18:38:34.382Z,22.00
2022-08-26T18:42:43.961Z,21.90
2022-08-26T18:46:53.429Z,21.80
2022-08-26T18:51:02.384Z,21.70
2022-08-26T18:55:12.200Z,21.60
2022-08-26T18:59:29.604Z,21.40
2022-08-26T19:03:51.199Z,21.40
2022-08-26T19:07:59.802Z,21.40
2022-08-26T19:12:27.772Z,21.40
2022-08-26T19:16:37.673Z,21.40
2022-08-26T19:20:48.045Z,21.50
2022-08-26T19:24:56.592Z,21.40
2022-08-26T19:29:05.276Z,21.30
2022-08-26T19:33:15.936Z,21.30
2022-08-26T19:37:27.515Z,21.30
2022-08-26T19:41:40.077Z,21.20
2022-08-26T19:45:48.812Z,21.20
2022-08-26T19:50:17.599Z,21.20
2022-08-26T19:54:27.139Z,21.20
2022-08-26T19:58:35.732Z,21.20
2022-08-26T20:02:45.126Z,21.10
2022-08-26T20:06:57.831Z,21.10
2022-08-26T20:11:07.525Z,21.10
2022-08-26T20:15:16.665Z,21.10
2022-08-26T20:19:43.296Z,21.10
2022-08-26T20:23:52.243Z,21.10
2022-08-26T20:28:01.401Z,21.10
2022-08-26T20:32:11.955Z,21.10
2022-08-26T20:36:23.058Z,21.00
2022-08-26T20:40:32.509Z,20.80
2022-08-26T20:45:00.675Z,20.80
2022-08-26T20:49:09.631Z,20.70
2022-08-26T20:53:18.776Z,20.60
2022-08-26T20:57:28.551Z,20.60
2022-08-26T21:01:42.316Z,20.70
2022-08-26T21:05:49.548Z,20.80
2022-08-26T21:09:58.299Z,20.80
2022-08-26T21:14:16.167Z,20.60
2022-08-26T21:18:19.411Z,20.60
2022-08-26T21:22:28.461Z,20.70
2022-08-26T21:26:56.416Z,20.70
2022-08-26T21:31:10.799Z,20.70
2022-08-26T21:35:19.399Z,20.70
2022-08-26T21:39:28.284Z,20.70
2022-08-26T21:43:38.308Z,20.60
2022-08-26T21:47:46.992Z,20.40
2022-08-26T21:51:55.602Z,20.30
2022-08-26T21:56:09.781Z,20.30
2022-08-26T22:00:37.758Z,20.30
2022-08-26T22:04:48.879Z,20.20
2022-08-26T22:08:56.978Z,20.30
2022-08-26T22:13:06.505Z,20.30
2022-08-26T22:17:16.850Z,20.30
2022-08-26T22:21:28.337Z,20.20
2022-08-26T22:25:37.515Z,20.10
2022-08-26T22:29:47.992Z,20.00
2022-08-26T22:33:56.901Z,20.00
2022-08-26T22:38:05.607Z,20.00
2022-08-26T22:42:14.327Z,20.00
2022-08-26T22:46:25.753Z,20.20
2022-08-26T22:50:34.350Z,20.10
2022-08-26T22:54:42.961Z,20.10
2022-08-26T22:58:51.575Z,20.10
2022-08-26T23:03:00.433Z,20.10
2022-08-26T23:07:09.253Z,20.00
2022-08-26T23:11:17.841Z,20.00
2022-08-26T23:15:27.099Z,19.90
2022-08-26T23:19:35.722Z,19.90
2022-08-26T23:23:45.090Z,19.90
2022-08-26T23:27:54.514Z,19.80
2022-08-26T23:32:04.522Z,19.70
2022-08-26T23:36:17.441Z,19.60
2022-08-26T23:40:29.555Z,19.60
2022-08-26T23:44:38.125Z,19.50
2022-08-26T23:48:47.226Z,19.60
2022-08-26T23:53:08.669Z,19.50
2022-08-26T23:57:19.040Z,19.40
